createdAt,value
2019-06-26T00:00:14.591Z,0.00
2019-06-26T00:01:14.579Z,0.00
2019-06-26T00:02:14.591Z,0.00
2019-06-26T00:03:14.558Z,0.00
2019-06-26T00:04:14.545Z,0.00
2019-06-26T00:05:14.548Z,0.00
2019-06-26T00:06:14.518Z,0.00
2019-06-26T00:07:14.538Z,0.00
2019-06-26T00:08:14.528Z,0.00
2019-06-26T00:09:14.495Z,0.00
2019-06-26T00:10:14.488Z,0.00
2019-06-26T00:11:14.461Z,0.00
2019-06-26T00:12:14.484Z,0.00
2019-06-26T00:13:25.593Z,0.00
2019-06-26T00:14:15.434Z,0.00
2019-06-26T00:15:14.422Z,0.00
2019-06-26T00:16:14.415Z,0.00
2019-06-26T00:17:14.442Z,0.00
2019-06-26T00:18:14.386Z,0.00
2019-06-26T00:19:14.447Z,0.00
2019-06-26T00:20:14.364Z,0.00
2019-06-26T00:21:14.366Z,0.00
2019-06-26T00:22:14.365Z,0.00
2019-06-26T00:23:14.328Z,0.00
2019-06-26T00:24:14.323Z,0.00
2019-06-26T00:25:14.310Z,0.00
2019-06-26T00:26:14.376Z,0.00
2019-06-26T00:27:14.366Z,0.00
2019-06-26T00:28:14.277Z,0.00
2019-06-26T00:29:14.265Z,0.00
2019-06-26T00:30:14.256Z,0.00
2019-06-26T00:31:14.241Z,0.00
2019-06-26T00:32:14.249Z,0.00
2019-06-26T00:33:14.227Z,0.00
2019-06-26T00:34:14.205Z,0.00
2019-06-26T00:35:14.197Z,0.00
2019-06-26T00:36:14.250Z,0.00
2019-06-26T00:37:14.204Z,0.00
2019-06-26T00:38:14.167Z,0.00
2019-06-26T00:39:14.155Z,0.00
2019-06-26T00:40:14.140Z,0.00
2019-06-26T00:41:14.130Z,0.00
2019-06-26T00:42:14.139Z,0.00
2019-06-26T00:43:14.108Z,0.00
2019-06-26T00:44:14.104Z,0.00
2019-06-26T00:45:14.084Z,0.00
2019-06-26T00:46:14.089Z,0.00
2019-06-26T00:47:14.083Z,0.00
2019-06-26T00:48:14.058Z,0.00
2019-06-26T00:49:14.101Z,0.00
2019-06-26T00:50:14.027Z,0.00
2019-06-26T00:51:14.021Z,0.00
2019-06-26T00:52:14.027Z,0.00
2019-06-26T00:53:13.999Z,0.00
2019-06-26T00:54:13.983Z,0.00
2019-06-26T00:55:13.977Z,0.00
2019-06-26T00:56:13.965Z,0.00
2019-06-26T00:57:13.973Z,0.00
2019-06-26T00:58:13.967Z,0.00
2019-06-26T00:59:13.937Z,0.00
2019-06-26T01:00:13.945Z,0.00
2019-06-26T01:01:13.914Z,0.00
2019-06-26T01:02:13.917Z,0.00
2019-06-26T01:03:13.883Z,0.00
2019-06-26T01:04:13.869Z,0.00
2019-06-26T01:05:13.869Z,0.00
2019-06-26T01:06:13.862Z,0.00
2019-06-26T01:07:13.859Z,0.00
2019-06-26T01:08:13.825Z,0.00
2019-06-26T01:09:13.850Z,0.00
2019-06-26T01:10:13.814Z,0.00
2019-06-26T01:11:13.794Z,0.00
2019-06-26T01:12:13.797Z,0.00
2019-06-26T01:13:13.777Z,0.00
2019-06-26T01:14:13.758Z,0.00
2019-06-26T01:15:13.752Z,0.00
2019-06-26T01:16:13.786Z,0.00
2019-06-26T01:17:13.760Z,0.00
2019-06-26T01:18:13.717Z,0.00
2019-06-26T01:19:13.708Z,0.00
2019-06-26T01:20:13.693Z,0.00
2019-06-26T01:21:13.686Z,0.00
2019-06-26T01:22:13.694Z,0.00
2019-06-26T01:23:13.657Z,0.00
2019-06-26T01:24:13.655Z,0.00
2019-06-26T01:25:13.643Z,0.00
2019-06-26T01:26:13.627Z,0.00
2019-06-26T01:27:13.638Z,0.00
2019-06-26T01:28:13.610Z,0.00
2019-06-26T01:29:13.602Z,0.00
2019-06-26T01:30:13.600Z,0.00
2019-06-26T01:31:13.581Z,0.00
2019-06-26T01:32:13.581Z,0.00
2019-06-26T01:33:13.555Z,0.00
2019-06-26T01:34:13.538Z,0.00
2019-06-26T01:35:13.529Z,0.00
2019-06-26T01:36:13.513Z,0.00
2019-06-26T01:37:13.543Z,0.00
2019-06-26T01:38:13.493Z,0.00
2019-06-26T01:39:13.488Z,0.00
2019-06-26T01:40:13.483Z,0.00
2019-06-26T01:41:13.465Z,0.00
2019-06-26T01:42:13.469Z,0.00
2019-06-26T01:43:13.435Z,0.00
2019-06-26T01:44:15.200Z,0.00
2019-06-26T01:45:13.432Z,0.00
2019-06-26T01:46:13.405Z,0.00
2019-06-26T01:47:13.417Z,0.00
2019-06-26T01:48:13.379Z,0.00
2019-06-26T01:49:13.374Z,0.00
2019-06-26T01:50:13.360Z,0.00
2019-06-26T01:51:13.351Z,0.00
2019-06-26T01:52:13.349Z,0.00
2019-06-26T01:53:13.322Z,0.00
2019-06-26T01:54:13.314Z,0.00
2019-06-26T01:55:13.310Z,0.00
2019-06-26T01:56:13.297Z,0.00
2019-06-26T01:57:13.297Z,0.00
2019-06-26T01:58:13.339Z,0.00
2019-06-26T01:59:13.254Z,0.00
2019-06-26T02:00:13.369Z,0.00
2019-06-26T02:01:13.236Z,0.00
2019-06-26T02:02:13.248Z,0.00
2019-06-26T02:03:13.218Z,0.00
2019-06-26T02:04:15.577Z,0.00
2019-06-26T02:05:13.195Z,0.00
2019-06-26T02:06:13.183Z,0.00
2019-06-26T02:07:13.189Z,0.00
2019-06-26T02:08:13.156Z,0.00
2019-06-26T02:09:13.152Z,0.00
2019-06-26T02:10:13.152Z,4.00
2019-06-26T02:11:13.138Z,4.00
2019-06-26T02:12:13.133Z,4.00
2019-06-26T02:13:13.125Z,4.00
2019-06-26T02:14:13.087Z,0.00
2019-06-26T02:15:13.100Z,4.00
2019-06-26T02:16:13.074Z,4.00
2019-06-26T02:17:13.111Z,4.00
2019-06-26T02:18:13.048Z,8.00
2019-06-26T02:19:13.039Z,4.00
2019-06-26T02:20:13.027Z,8.00
2019-06-26T02:21:13.017Z,8.00
2019-06-26T02:22:13.043Z,8.00
2019-06-26T02:23:13.003Z,12.00
2019-06-26T02:24:12.980Z,12.00
2019-06-26T02:25:12.989Z,12.00
2019-06-26T02:26:12.966Z,12.00
2019-06-26T02:27:12.972Z,12.00
2019-06-26T02:28:12.937Z,16.00
2019-06-26T02:29:12.934Z,20.00
2019-06-26T02:30:12.915Z,16.00
2019-06-26T02:31:12.899Z,20.00
2019-06-26T02:32:12.954Z,24.00
2019-06-26T02:33:12.878Z,24.00
2019-06-26T02:34:12.870Z,28.00
2019-06-26T02:35:12.857Z,32.00
2019-06-26T02:36:12.846Z,36.00
2019-06-26T02:37:12.846Z,36.00
2019-06-26T02:38:12.828Z,40.00
2019-06-26T02:39:12.814Z,44.00
2019-06-26T02:40:12.800Z,48.00
2019-06-26T02:41:12.790Z,52.00
2019-06-26T02:42:12.799Z,60.00
2019-06-26T02:43:12.770Z,60.00
2019-06-26T02:44:12.765Z,68.00
2019-06-26T02:45:12.745Z,72.00
2019-06-26T02:46:12.734Z,76.00
2019-06-26T02:47:19.675Z,84.00
2019-06-26T02:48:13.717Z,88.00
2019-06-26T02:49:12.703Z,96.00
2019-06-26T02:50:12.706Z,104.00
2019-06-26T02:51:12.686Z,108.00
2019-06-26T02:52:12.685Z,116.00
2019-06-26T02:53:12.666Z,124.00
2019-06-26T02:54:12.649Z,132.00
2019-06-26T02:55:12.648Z,144.00
2019-06-26T02:56:12.621Z,148.00
2019-06-26T02:57:12.628Z,156.00
2019-06-26T02:58:12.596Z,164.00
2019-06-26T02:59:12.587Z,176.00
2019-06-26T03:00:12.576Z,184.00
2019-06-26T03:01:12.577Z,196.00
2019-06-26T03:02:12.589Z,204.00
2019-06-26T03:03:12.543Z,212.00
2019-06-26T03:04:12.531Z,228.00
2019-06-26T03:05:12.533Z,236.00
2019-06-26T03:06:12.512Z,244.00
2019-06-26T03:07:12.522Z,248.00
2019-06-26T03:08:12.489Z,256.00
2019-06-26T03:09:12.483Z,260.00
2019-06-26T03:10:12.476Z,264.00
2019-06-26T03:11:12.463Z,272.00
2019-06-26T03:12:12.455Z,272.00
2019-06-26T03:13:12.429Z,280.00
2019-06-26T03:14:12.426Z,288.00
2019-06-26T03:15:12.407Z,292.00
2019-06-26T03:16:12.412Z,300.00
2019-06-26T03:17:12.407Z,308.00
2019-06-26T03:18:12.376Z,316.00
2019-06-26T03:19:12.367Z,320.00
2019-06-26T03:20:12.399Z,332.00
2019-06-26T03:21:12.341Z,340.00
2019-06-26T03:22:12.458Z,356.00
2019-06-26T03:23:12.319Z,368.00
2019-06-26T03:24:12.314Z,376.00
2019-06-26T03:25:12.300Z,388.00
2019-06-26T03:26:12.285Z,404.00
2019-06-26T03:27:12.295Z,412.00
2019-06-26T03:28:12.265Z,424.00
2019-06-26T03:29:12.252Z,432.00
2019-06-26T03:30:12.256Z,448.00
2019-06-26T03:31:12.235Z,460.00
2019-06-26T03:32:12.240Z,468.00
2019-06-26T03:33:12.220Z,484.00
2019-06-26T03:34:12.273Z,504.00
2019-06-26T03:35:12.193Z,524.00
2019-06-26T03:36:12.180Z,548.00
2019-06-26T03:37:12.176Z,560.00
2019-06-26T03:38:12.157Z,568.00
2019-06-26T03:39:12.140Z,580.00
2019-06-26T03:40:12.130Z,588.00
2019-06-26T03:41:12.119Z,596.00
2019-06-26T03:42:12.122Z,600.00
2019-06-26T03:43:12.105Z,612.00
2019-06-26T03:44:12.085Z,624.00
2019-06-26T03:45:25.279Z,636.00
2019-06-26T03:46:13.067Z,652.00
2019-06-26T03:47:12.070Z,676.00
2019-06-26T03:48:12.042Z,696.00
2019-06-26T03:49:12.038Z,716.00
2019-06-26T03:50:12.019Z,728.00
2019-06-26T03:51:14.117Z,732.00
2019-06-26T03:52:12.016Z,732.00
2019-06-26T03:53:11.996Z,724.00
2019-06-26T03:54:11.978Z,720.00
2019-06-26T03:55:11.965Z,716.00
2019-06-26T03:56:12.002Z,712.00
2019-06-26T03:57:11.969Z,720.00
2019-06-26T03:58:11.936Z,728.00
2019-06-26T03:59:11.917Z,748.00
2019-06-26T04:00:11.902Z,764.00
2019-06-26T04:01:11.892Z,772.00
2019-06-26T04:02:11.907Z,776.00
2019-06-26T04:03:11.890Z,784.00
2019-06-26T04:04:11.859Z,796.00
2019-06-26T04:05:11.845Z,808.00
2019-06-26T04:06:11.842Z,820.00
2019-06-26T04:07:11.844Z,832.00
2019-06-26T04:08:11.825Z,844.00
2019-06-26T04:09:11.808Z,860.00
2019-06-26T04:10:11.802Z,884.00
2019-06-26T04:11:11.780Z,896.00
2019-06-26T04:12:11.791Z,908.00
2019-06-26T04:13:11.758Z,920.00
2019-06-26T04:14:11.750Z,928.00
2019-06-26T04:15:11.742Z,940.00
2019-06-26T04:16:11.735Z,948.00
2019-06-26T04:17:11.736Z,952.00
2019-06-26T04:18:11.708Z,960.00
2019-06-26T04:19:11.693Z,972.00
2019-06-26T04:20:11.682Z,984.00
2019-06-26T04:21:11.671Z,988.00
2019-06-26T04:22:11.707Z,996.00
2019-06-26T04:23:11.651Z,1008.00
2019-06-26T04:24:11.632Z,1016.00
2019-06-26T04:25:11.626Z,1028.00
2019-06-26T04:26:11.618Z,1036.00
2019-06-26T04:27:11.621Z,1048.00
2019-06-26T04:28:11.597Z,1056.00
2019-06-26T04:29:11.580Z,1064.00
2019-06-26T04:30:11.566Z,1076.00
2019-06-26T04:31:11.555Z,1084.00
2019-06-26T04:32:11.590Z,1096.00
2019-06-26T04:33:11.546Z,1108.00
2019-06-26T04:34:11.522Z,1120.00
2019-06-26T04:35:11.512Z,1136.00
2019-06-26T04:36:11.504Z,1148.00
2019-06-26T04:37:11.517Z,1164.00
2019-06-26T04:38:11.483Z,1176.00
2019-06-26T04:39:11.468Z,1192.00
2019-06-26T04:40:11.457Z,1204.00
2019-06-26T04:41:11.442Z,1220.00
2019-06-26T04:42:11.448Z,1236.00
2019-06-26T04:43:11.421Z,1244.00
2019-06-26T04:44:11.416Z,1256.00
2019-06-26T04:45:11.400Z,1272.00
2019-06-26T04:46:11.394Z,1284.00
2019-06-26T04:47:11.401Z,1300.00
2019-06-26T04:48:11.370Z,1304.00
2019-06-26T04:49:11.357Z,1312.00
2019-06-26T04:50:11.354Z,1324.00
2019-06-26T04:51:11.337Z,1340.00
2019-06-26T04:52:11.358Z,1348.00
2019-06-26T04:53:11.309Z,1364.00
2019-06-26T04:54:11.299Z,1380.00
2019-06-26T04:55:11.296Z,1400.00
2019-06-26T04:56:11.272Z,1412.00
2019-06-26T04:57:11.310Z,1424.00
2019-06-26T04:58:11.268Z,1440.00
2019-06-26T04:59:11.263Z,1460.00
2019-06-26T05:00:11.230Z,1468.00
2019-06-26T05:01:11.275Z,1476.00
2019-06-26T05:02:11.226Z,1484.00
2019-06-26T05:03:11.214Z,1492.00
2019-06-26T05:04:11.206Z,1508.00
2019-06-26T05:05:11.180Z,1524.00
2019-06-26T05:06:11.162Z,1540.00
2019-06-26T05:07:11.174Z,1552.00
2019-06-26T05:08:11.143Z,1568.00
2019-06-26T05:09:11.130Z,1584.00
2019-06-26T05:10:11.126Z,1600.00
2019-06-26T05:11:12.852Z,1612.00
2019-06-26T05:12:11.115Z,1628.00
2019-06-26T05:13:11.095Z,1640.00
2019-06-26T05:14:11.086Z,1660.00
2019-06-26T05:15:11.073Z,1676.00
2019-06-26T05:16:15.595Z,1692.00
2019-06-26T05:17:12.060Z,1704.00
2019-06-26T05:18:11.039Z,1720.00
2019-06-26T05:19:11.031Z,1732.00
2019-06-26T05:20:11.187Z,1752.00
2019-06-26T05:21:11.050Z,1764.00
2019-06-26T05:22:11.008Z,1784.00
2019-06-26T05:23:10.974Z,1804.00
2019-06-26T05:24:10.972Z,1828.00
2019-06-26T05:25:10.959Z,1852.00
2019-06-26T05:26:10.954Z,1868.00
2019-06-26T05:27:10.952Z,1884.00
2019-06-26T05:28:10.922Z,1900.00
2019-06-26T05:29:10.906Z,1912.00
2019-06-26T05:30:10.909Z,1924.00
2019-06-26T05:31:10.892Z,1936.00
2019-06-26T05:32:10.903Z,1956.00
2019-06-26T05:33:10.861Z,1972.00
2019-06-26T05:34:11.272Z,1988.00
2019-06-26T05:35:10.843Z,2004.00
2019-06-26T05:36:10.831Z,2020.00
2019-06-26T05:37:10.853Z,2032.00
2019-06-26T05:38:10.805Z,2052.00
2019-06-26T05:39:10.801Z,2072.00
2019-06-26T05:40:10.788Z,2080.00
2019-06-26T05:41:10.797Z,2092.00
2019-06-26T05:42:10.779Z,2104.00
2019-06-26T05:43:10.758Z,2120.00
2019-06-26T05:44:10.741Z,2132.00
2019-06-26T05:45:10.727Z,2148.00
2019-06-26T05:46:10.728Z,2156.00
2019-06-26T05:47:10.728Z,2176.00
2019-06-26T05:48:10.696Z,2184.00
2019-06-26T05:49:10.690Z,2196.00
2019-06-26T05:50:10.956Z,2204.00
2019-06-26T05:51:10.673Z,2216.00
2019-06-26T05:52:10.663Z,2224.00
2019-06-26T05:53:10.644Z,2244.00
2019-06-26T05:54:10.625Z,2244.00
2019-06-26T05:55:10.614Z,2252.00
2019-06-26T05:56:10.604Z,2268.00
2019-06-26T05:57:10.706Z,2288.00
2019-06-26T05:58:10.589Z,2304.00
2019-06-26T05:59:10.622Z,2328.00
2019-06-26T06:00:10.695Z,2340.00
2019-06-26T06:01:10.550Z,2356.00
2019-06-26T06:02:10.556Z,2372.00
2019-06-26T06:03:10.529Z,2376.00
2019-06-26T06:04:10.521Z,2388.00
2019-06-26T06:05:10.549Z,2396.00
2019-06-26T06:06:10.489Z,2412.00
2019-06-26T06:07:10.505Z,2420.00
2019-06-26T06:08:10.478Z,2432.00
2019-06-26T06:09:10.459Z,2440.00
2019-06-26T06:10:10.449Z,2448.00
2019-06-26T06:11:10.435Z,2456.00
2019-06-26T06:12:10.446Z,2468.00
2019-06-26T06:13:10.417Z,2488.00
2019-06-26T06:14:10.405Z,2492.00
2019-06-26T06:15:10.581Z,2512.00
2019-06-26T06:16:10.375Z,2524.00
2019-06-26T06:17:10.383Z,2540.00
2019-06-26T06:18:10.357Z,2552.00
2019-06-26T06:19:10.359Z,2568.00
2019-06-26T06:20:10.336Z,2580.00
2019-06-26T06:21:10.331Z,2588.00
2019-06-26T06:22:10.330Z,2600.00
2019-06-26T06:23:10.308Z,2612.00
2019-06-26T06:24:10.288Z,2624.00
2019-06-26T06:25:10.288Z,2636.00
2019-06-26T06:26:10.270Z,2644.00
2019-06-26T06:27:10.382Z,2656.00
2019-06-26T06:28:10.271Z,2668.00
2019-06-26T06:29:10.239Z,2680.00
2019-06-26T06:30:10.224Z,2700.00
2019-06-26T06:31:10.220Z,2712.00
2019-06-26T06:32:10.216Z,2728.00
2019-06-26T06:33:10.212Z,2736.00
2019-06-26T06:34:10.178Z,2752.00
2019-06-26T06:35:10.174Z,2764.00
2019-06-26T06:36:10.158Z,2780.00
2019-06-26T06:37:10.159Z,2792.00
2019-06-26T06:38:10.136Z,2808.00
2019-06-26T06:39:10.124Z,2824.00
2019-06-26T06:40:10.118Z,2840.00
2019-06-26T06:41:10.366Z,2856.00
2019-06-26T06:42:10.108Z,2868.00
2019-06-26T06:43:10.076Z,2876.00
2019-06-26T06:44:10.064Z,2880.00
2019-06-26T06:45:10.059Z,2888.00
2019-06-26T06:46:10.046Z,2904.00
2019-06-26T06:47:10.051Z,2916.00
2019-06-26T06:48:10.034Z,2920.00
2019-06-26T06:49:10.013Z,2928.00
2019-06-26T06:50:10.031Z,2940.00
2019-06-26T06:51:09.995Z,2956.00
2019-06-26T06:52:09.994Z,2972.00
2019-06-26T06:53:09.971Z,2984.00
2019-06-26T06:54:09.960Z,3004.00
2019-06-26T06:55:09.958Z,3024.00
2019-06-26T06:56:09.941Z,3032.00
2019-06-26T06:57:09.951Z,3048.00
2019-06-26T06:58:09.907Z,3060.00
2019-06-26T06:59:09.896Z,3072.00
2019-06-26T07:00:09.893Z,3092.00
2019-06-26T07:01:09.888Z,3100.00
2019-06-26T07:02:09.913Z,3124.00
2019-06-26T07:03:09.872Z,3136.00
2019-06-26T07:04:09.841Z,3148.00
2019-06-26T07:05:09.983Z,3160.00
2019-06-26T07:06:09.826Z,3168.00
2019-06-26T07:07:09.833Z,3188.00
2019-06-26T07:08:09.799Z,3188.00
2019-06-26T07:09:09.787Z,3204.00
2019-06-26T07:10:09.777Z,3232.00
2019-06-26T07:11:09.766Z,3392.00
2019-06-26T07:12:09.770Z,3404.00
2019-06-26T07:13:09.751Z,3416.00
2019-06-26T07:14:09.724Z,3436.00
2019-06-26T07:15:09.747Z,3464.00
2019-06-26T07:16:09.708Z,3472.00
2019-06-26T07:17:19.811Z,3484.00
2019-06-26T07:18:10.686Z,3504.00
2019-06-26T07:19:09.679Z,3516.00
2019-06-26T07:20:09.784Z,3516.00
2019-06-26T07:21:09.649Z,3536.00
2019-06-26T07:22:09.662Z,3552.00
2019-06-26T07:23:09.698Z,3552.00
2019-06-26T07:24:09.619Z,3568.00
2019-06-26T07:25:09.607Z,3592.00
2019-06-26T07:26:13.217Z,3612.00
2019-06-26T07:27:09.613Z,3624.00
2019-06-26T07:28:09.609Z,3632.00
2019-06-26T07:29:09.591Z,3636.00
2019-06-26T07:30:09.558Z,3652.00
2019-06-26T07:31:09.544Z,3668.00
2019-06-26T07:32:09.567Z,3680.00
2019-06-26T07:33:09.522Z,3688.00
2019-06-26T07:34:09.510Z,3720.00
2019-06-26T07:35:09.499Z,3728.00
2019-06-26T07:36:09.495Z,3748.00
2019-06-26T07:37:09.566Z,3780.00
2019-06-26T07:38:09.464Z,3808.00
2019-06-26T07:39:09.666Z,3808.00
2019-06-26T07:40:09.464Z,3828.00
2019-06-26T07:41:09.449Z,3852.00
2019-06-26T07:42:09.416Z,3884.00
2019-06-26T07:43:09.445Z,3916.00
2019-06-26T07:44:09.406Z,3928.00
2019-06-26T07:45:09.388Z,3952.00
2019-06-26T07:46:09.390Z,3960.00
2019-06-26T07:47:22.369Z,3972.00
2019-06-26T07:48:10.351Z,3988.00
2019-06-26T07:49:09.350Z,3984.00
2019-06-26T07:50:09.326Z,4012.00
2019-06-26T07:51:09.337Z,4036.00
2019-06-26T07:52:09.307Z,4036.00
2019-06-26T07:53:09.308Z,4064.00
2019-06-26T07:54:09.324Z,4116.00
2019-06-26T07:55:11.906Z,4140.00
2019-06-26T07:56:09.275Z,4164.00
2019-06-26T07:57:09.252Z,4172.00
2019-06-26T07:58:09.274Z,4176.00
2019-06-26T07:59:09.253Z,4184.00
2019-06-26T08:00:09.220Z,4204.00
2019-06-26T08:01:09.240Z,4236.00
2019-06-26T08:02:09.196Z,4268.00
2019-06-26T08:03:09.185Z,4300.00
2019-06-26T08:04:09.217Z,4312.00
2019-06-26T08:05:09.162Z,4320.00
2019-06-26T08:06:09.169Z,4356.00
2019-06-26T08:07:09.143Z,4376.00
2019-06-26T08:08:09.128Z,4416.00
2019-06-26T08:09:09.150Z,4440.00
2019-06-26T08:10:09.135Z,4464.00
2019-06-26T08:11:09.107Z,4500.00
2019-06-26T08:12:09.090Z,4524.00
2019-06-26T08:13:09.074Z,4564.00
2019-06-26T08:14:09.089Z,4588.00
2019-06-26T08:15:09.062Z,4604.00
2019-06-26T08:16:09.061Z,4656.00
2019-06-26T08:17:09.040Z,4688.00
2019-06-26T08:18:09.021Z,4704.00
2019-06-26T08:19:09.032Z,4744.00
2019-06-26T08:20:09.010Z,4764.00
2019-06-26T08:21:12.429Z,4796.00
2019-06-26T08:22:09.005Z,4824.00
2019-06-26T08:23:08.966Z,4856.00
2019-06-26T08:24:08.976Z,4896.00
2019-06-26T08:25:08.955Z,4928.00
2019-06-26T08:26:08.965Z,4984.00
2019-06-26T08:27:11.984Z,5028.00
2019-06-26T08:28:08.920Z,5020.00
2019-06-26T08:29:08.933Z,5052.00
2019-06-26T08:30:08.990Z,5080.00
2019-06-26T08:31:09.015Z,5104.00
2019-06-26T08:32:08.896Z,5136.00
2019-06-26T08:33:08.871Z,5200.00
2019-06-26T08:34:08.847Z,5248.00
2019-06-26T08:35:08.851Z,5292.00
2019-06-26T08:36:08.826Z,5328.00
2019-06-26T08:37:09.551Z,5372.00
2019-06-26T08:38:11.297Z,5368.00
2019-06-26T08:39:09.816Z,5312.00
2019-06-26T08:40:08.826Z,5256.00
2019-06-26T08:41:08.769Z,5212.00
2019-06-26T08:42:08.768Z,5192.00
2019-06-26T08:43:08.754Z,5236.00
2019-06-26T08:44:08.749Z,5408.00
2019-06-26T08:45:08.743Z,5476.00
2019-06-26T08:46:08.717Z,5516.00
2019-06-26T08:47:08.702Z,5548.00
2019-06-26T08:48:19.252Z,5540.00
2019-06-26T08:49:24.429Z,5548.00
2019-06-26T08:50:09.705Z,5568.00
2019-06-26T08:51:08.664Z,5572.00
2019-06-26T08:52:08.662Z,5612.00
2019-06-26T08:53:08.641Z,5688.00
2019-06-26T08:54:08.626Z,5740.00
2019-06-26T08:55:08.653Z,5792.00
2019-06-26T08:56:08.623Z,5832.00
2019-06-26T08:57:08.657Z,5884.00
2019-06-26T08:58:08.590Z,5944.00
2019-06-26T08:59:08.571Z,5944.00
2019-06-26T09:00:08.589Z,5960.00
2019-06-26T09:01:08.559Z,5952.00
2019-06-26T09:02:08.554Z,6024.00
2019-06-26T09:03:08.543Z,6100.00
2019-06-26T09:04:08.551Z,6148.00
2019-06-26T09:05:08.531Z,6180.00
2019-06-26T09:06:08.512Z,6256.00
2019-06-26T09:07:08.486Z,6320.00
2019-06-26T09:08:08.602Z,6360.00
2019-06-26T09:09:08.483Z,6392.00
2019-06-26T09:10:08.470Z,6420.00
2019-06-26T09:11:08.442Z,6476.00
2019-06-26T09:12:08.434Z,6504.00
2019-06-26T09:13:08.490Z,6504.00
2019-06-26T09:14:08.434Z,6392.00
2019-06-26T09:15:08.421Z,6356.00
2019-06-26T09:16:08.405Z,6332.00
2019-06-26T09:17:08.385Z,6324.00
2019-06-26T09:18:08.376Z,6408.00
2019-06-26T09:19:08.395Z,6552.00
2019-06-26T09:20:08.370Z,6548.00
2019-06-26T09:21:08.344Z,6644.00
2019-06-26T09:22:08.323Z,6764.00
2019-06-26T09:23:08.318Z,6856.00
2019-06-26T09:24:08.319Z,6868.00
2019-06-26T09:25:20.926Z,6864.00
2019-06-26T09:26:09.280Z,6884.00
2019-06-26T09:27:08.274Z,6856.00
2019-06-26T09:28:08.263Z,6856.00
2019-06-26T09:29:08.366Z,6852.00
2019-06-26T09:30:08.278Z,6900.00
2019-06-26T09:31:08.240Z,6928.00
2019-06-26T09:32:08.230Z,6988.00
2019-06-26T09:33:08.727Z,7008.00
2019-06-26T09:34:08.197Z,7084.00
2019-06-26T09:35:08.212Z,7168.00
2019-06-26T09:36:08.172Z,7180.00
2019-06-26T09:37:08.180Z,7172.00
2019-06-26T09:38:08.167Z,7260.00
2019-06-26T09:39:08.156Z,7368.00
2019-06-26T09:40:08.152Z,7452.00
2019-06-26T09:41:08.127Z,7548.00
2019-06-26T09:42:08.115Z,7632.00
2019-06-26T09:43:08.103Z,7712.00
2019-06-26T09:44:08.091Z,7796.00
2019-06-26T09:45:08.106Z,7896.00
2019-06-26T09:46:08.070Z,8032.00
2019-06-26T09:47:08.057Z,8200.00
2019-06-26T09:48:08.044Z,8404.00
2019-06-26T09:49:08.056Z,8620.00
2019-06-26T09:50:08.068Z,8764.00
2019-06-26T09:51:08.011Z,8624.00
2019-06-26T09:52:08.012Z,8152.00
2019-06-26T09:53:07.993Z,7892.00
2019-06-26T09:54:07.981Z,8144.00
2019-06-26T09:55:08.004Z,8368.00
2019-06-26T09:56:07.968Z,8200.00
2019-06-26T09:57:07.961Z,8236.00
2019-06-26T09:58:07.943Z,8488.00
2019-06-26T09:59:07.935Z,8612.00
2019-06-26T10:00:07.985Z,8596.00
2019-06-26T10:01:07.972Z,8616.00
2019-06-26T10:02:07.898Z,8740.00
2019-06-26T10:03:07.892Z,8808.00
2019-06-26T10:04:07.873Z,8944.00
2019-06-26T10:05:07.888Z,8980.00
2019-06-26T10:06:07.850Z,9036.00
2019-06-26T10:07:07.854Z,9064.00
2019-06-26T10:08:07.881Z,9188.00
2019-06-26T10:09:07.819Z,9064.00
2019-06-26T10:10:07.838Z,9120.00
2019-06-26T10:11:07.813Z,9180.00
2019-06-26T10:12:07.860Z,9332.00
2019-06-26T10:13:07.790Z,9380.00
2019-06-26T10:14:07.769Z,9252.00
2019-06-26T10:15:07.774Z,9252.00
2019-06-26T10:16:07.769Z,9260.00
2019-06-26T10:17:07.735Z,9340.00
2019-06-26T10:18:07.765Z,9552.00
2019-06-26T10:19:10.623Z,9756.00
2019-06-26T10:20:07.743Z,10156.00
2019-06-26T10:21:07.698Z,13112.00
2019-06-26T10:22:07.689Z,50848.00
2019-06-26T10:23:07.682Z,88576.00
2019-06-26T10:24:07.665Z,90560.00
2019-06-26T10:25:11.096Z,92064.00
2019-06-26T10:26:07.704Z,96832.00
2019-06-26T10:27:07.636Z,96352.00
2019-06-26T10:28:07.630Z,93504.00
2019-06-26T10:29:07.615Z,94240.00
2019-06-26T10:30:07.632Z,96320.00
2019-06-26T10:31:18.355Z,90944.00
2019-06-26T10:32:07.582Z,90656.00
2019-06-26T10:33:07.583Z,100288.00
2019-06-26T10:34:09.975Z,93472.00
2019-06-26T10:35:07.574Z,80256.00
2019-06-26T10:36:07.549Z,91744.00
2019-06-26T10:37:07.548Z,94624.00
2019-06-26T10:38:07.519Z,94592.00
2019-06-26T10:39:07.518Z,93536.00
2019-06-26T10:40:07.526Z,96384.00
2019-06-26T10:41:07.506Z,96192.00
2019-06-26T10:42:07.542Z,99360.00
2019-06-26T10:43:07.480Z,99168.00
2019-06-26T10:44:07.463Z,100064.00
2019-06-26T10:45:07.494Z,104480.00
2019-06-26T10:46:07.447Z,104224.00
2019-06-26T10:47:07.439Z,103808.00
2019-06-26T10:48:07.473Z,103808.00
2019-06-26T10:49:07.441Z,97152.00
2019-06-26T10:50:07.431Z,98944.00
2019-06-26T10:51:07.407Z,100960.00
2019-06-26T10:52:07.394Z,100864.00
2019-06-26T10:53:07.389Z,106176.00
2019-06-26T10:54:07.412Z,102880.00
2019-06-26T10:55:07.420Z,105024.00
2019-06-26T10:56:07.366Z,113344.00
2019-06-26T10:57:07.352Z,131296.00
2019-06-26T10:58:07.348Z,145504.00
2019-06-26T10:59:07.332Z,147584.00
2019-06-26T11:00:07.351Z,142912.00
2019-06-26T11:01:07.346Z,151808.00
2019-06-26T11:02:07.330Z,150976.00
2019-06-26T11:03:07.308Z,154016.00
2019-06-26T11:04:07.292Z,151424.00
2019-06-26T11:05:07.319Z,151136.00
2019-06-26T11:06:07.281Z,145536.00
2019-06-26T11:07:07.278Z,14448.00
2019-06-26T11:08:07.282Z,12256.00
2019-06-26T11:09:07.254Z,145440.00
2019-06-26T11:10:07.283Z,144608.00
2019-06-26T11:11:07.256Z,148064.00
2019-06-26T11:12:07.240Z,150624.00
2019-06-26T11:13:07.224Z,149152.00
2019-06-26T11:14:07.230Z,151584.00
2019-06-26T11:15:07.229Z,152960.00
2019-06-26T11:16:07.211Z,146880.00
2019-06-26T11:17:07.206Z,149376.00
2019-06-26T11:18:07.202Z,148928.00
2019-06-26T11:19:07.181Z,151872.00
2019-06-26T11:20:07.270Z,153600.00
2019-06-26T11:21:07.163Z,148480.00
2019-06-26T11:22:07.203Z,139488.00
2019-06-26T11:23:07.200Z,140352.00
2019-06-26T11:24:07.150Z,142112.00
2019-06-26T11:25:07.164Z,139808.00
2019-06-26T11:26:07.134Z,72448.00
2019-06-26T11:27:07.117Z,147392.00
2019-06-26T11:28:07.116Z,145440.00
2019-06-26T11:29:07.108Z,145856.00
2019-06-26T11:30:07.202Z,148320.00
2019-06-26T11:31:07.100Z,144448.00
2019-06-26T11:32:09.431Z,144640.00
2019-06-26T11:33:07.099Z,140960.00
2019-06-26T11:34:07.075Z,129632.00
2019-06-26T11:35:07.107Z,129248.00
2019-06-26T11:36:07.065Z,126592.00
2019-06-26T11:37:07.138Z,128064.00
2019-06-26T11:38:07.080Z,127264.00
2019-06-26T11:39:07.051Z,122784.00
2019-06-26T11:40:07.674Z,127808.00
2019-06-26T11:41:07.054Z,79104.00
2019-06-26T11:42:07.037Z,98976.00
2019-06-26T11:43:07.016Z,88224.00
2019-06-26T11:44:07.014Z,69344.00
2019-06-26T11:45:07.038Z,13536.00
2019-06-26T11:46:06.995Z,32768.00
2019-06-26T11:47:06.997Z,18816.00
2019-06-26T11:48:07.003Z,21952.00
2019-06-26T11:49:06.973Z,23872.00
2019-06-26T11:50:06.980Z,18912.00
2019-06-26T11:51:06.963Z,12692.00
2019-06-26T11:52:06.962Z,23520.00
2019-06-26T11:53:06.959Z,13180.00
2019-06-26T11:54:06.940Z,20928.00
2019-06-26T11:55:06.944Z,16180.00
2019-06-26T11:56:06.913Z,20320.00
2019-06-26T11:57:06.906Z,11496.00
2019-06-26T11:58:06.941Z,11324.00
2019-06-26T11:59:06.891Z,27136.00
2019-06-26T12:00:06.906Z,12180.00
2019-06-26T12:01:06.875Z,12024.00
2019-06-26T12:02:06.855Z,17036.00
2019-06-26T12:03:06.853Z,11184.00
2019-06-26T12:04:06.836Z,11940.00
2019-06-26T12:05:06.852Z,11524.00
2019-06-26T12:06:17.770Z,12444.00
2019-06-26T12:07:07.818Z,9428.00
2019-06-26T12:08:06.797Z,33280.00
2019-06-26T12:09:06.802Z,21728.00
2019-06-26T12:10:06.924Z,17536.00
2019-06-26T12:11:06.767Z,23904.00
2019-06-26T12:12:06.799Z,15072.00
2019-06-26T12:13:06.811Z,33024.00
2019-06-26T12:14:06.784Z,32256.00
2019-06-26T12:15:06.784Z,23168.00
2019-06-26T12:16:06.723Z,15100.00
2019-06-26T12:17:06.784Z,12620.00
2019-06-26T12:18:06.708Z,14720.00